createdAt,value
2022-11-06T00:02:13.545Z,1022.08
2022-11-06T00:11:47.502Z,1022.14
2022-11-06T00:21:23.231Z,1022.13
2022-11-06T00:30:59.116Z,1022.05
2022-11-06T00:50:11.623Z,1021.94
2022-11-06T00:59:48.528Z,1021.9
2022-11-06T01:09:25.676Z,1021.95
2022-11-06T01:19:02.963Z,1021.84
2022-11-06T01:28:39.657Z,1021.76
2022-11-06T01:47:53.401Z,1021.47
2022-11-06T01:57:29.551Z,1021.49
2022-11-06T02:07:06.422Z,1021.35
2022-11-06T02:16:43.167Z,1021.47
2022-11-06T02:26:20.066Z,1021.28
2022-11-06T02:45:33.324Z,1021.25
2022-11-06T03:04:46.591Z,1021.26
2022-11-06T03:14:23.479Z,1021.18
2022-11-06T03:23:59.625Z,1021.24
2022-11-06T03:33:36.008Z,1021.18
2022-11-06T03:43:12.600Z,1021.08
2022-11-06T03:52:49.489Z,1020.96
2022-11-06T04:02:26.332Z,1021.02
2022-11-06T04:12:02.637Z,1021.06
2022-11-06T04:21:38.660Z,1021.03
2022-11-06T04:31:15.275Z,1021.13
2022-11-06T04:40:51.707Z,1021
2022-11-06T05:00:05.100Z,1020.92
2022-11-06T05:09:41.483Z,1020.77
2022-11-06T05:19:18.072Z,1020.63
2022-11-06T05:28:55.023Z,1020.6
2022-11-06T05:38:31.408Z,1020.48
2022-11-06T05:48:08.505Z,1020.66
2022-11-06T05:57:44.844Z,1020.54
2022-11-06T06:07:21.964Z,1020.39
2022-11-06T06:16:58.556Z,1020.48
2022-11-06T06:36:11.861Z,1020.41
2022-11-06T06:45:48.444Z,1020.35
2022-11-06T06:55:25.460Z,1020.39
2022-11-06T07:05:02.848Z,1020.35
2022-11-06T07:14:40.041Z,1020.38
2022-11-06T07:33:55.131Z,1020.38
2022-11-06T07:53:09.916Z,1020.24
2022-11-06T08:02:46.815Z,1020.19
2022-11-06T08:12:23.929Z,1020.1
2022-11-06T08:22:02.901Z,1019.86
2022-11-06T08:31:39.934Z,1019.83
2022-11-06T08:41:17.334Z,1019.62
2022-11-06T08:50:54.717Z,1019.4
2022-11-06T09:00:32.140Z,1019.37
2022-11-06T09:10:09.451Z,1019.2
2022-11-06T09:19:46.979Z,1019.24
2022-11-06T09:29:24.834Z,1019.06
2022-11-06T09:39:00.969Z,1019.02
2022-11-06T09:48:38.542Z,1018.85
2022-11-06T10:17:30.471Z,1018.63
2022-11-06T10:27:08.320Z,1018.35
2022-11-06T10:36:49.652Z,1018.36
2022-11-06T10:46:24.388Z,1018.08
2022-11-06T10:56:22.901Z,1017.96
2022-11-06T11:06:23.052Z,1017.65
2022-11-06T11:16:08.138Z,1017.28
2022-11-06T11:25:47.609Z,1017.25
2022-11-06T11:35:25.797Z,1017.12
2022-11-06T11:44:30.200Z,1017.08
2022-11-06T11:53:54.086Z,1016.97
2022-11-06T12:03:26.690Z,1016.87
2022-11-06T12:13:01.763Z,1016.73
2022-11-06T12:22:38.226Z,1016.69
2022-11-06T12:32:16.290Z,1016.42
2022-11-06T12:42:17.411Z,1016.11
2022-11-06T12:52:13.901Z,1016.06
2022-11-06T13:01:56.342Z,1015.88
2022-11-06T13:11:36.126Z,1015.8
2022-11-06T13:21:14.356Z,1015.63
2022-11-06T13:30:50.910Z,1015.48
2022-11-06T13:40:24.566Z,1015.28
2022-11-06T13:49:49.912Z,1015.02
2022-11-06T13:59:28.581Z,1014.83
2022-11-06T14:09:01.907Z,1014.75
2022-11-06T14:18:29.214Z,1014.64
2022-11-06T14:28:00.249Z,1014.65
2022-11-06T14:37:33.893Z,1014.56
2022-11-06T14:47:06.658Z,1014.54
2022-11-06T14:56:41.326Z,1014.65
2022-11-06T15:35:03.611Z,1014.42
2022-11-06T15:44:39.852Z,1014.38
2022-11-06T15:54:16.114Z,1014.37
2022-11-06T16:03:52.778Z,1014.22
2022-11-06T16:13:29.451Z,1014.35
2022-11-06T16:23:06.460Z,1014.48
2022-11-06T16:32:42.925Z,1014.26
2022-11-06T16:51:54.610Z,1014.07
2022-11-06T17:01:31.509Z,1014.04
2022-11-06T17:11:08.601Z,1014.03
2022-11-06T17:30:22.336Z,1014.19
2022-11-06T17:39:58.852Z,1014.22
2022-11-06T17:49:35.857Z,1014.12
2022-11-06T17:59:12.253Z,1014.2
2022-11-06T18:08:48.930Z,1014.17
2022-11-06T18:18:25.690Z,1014.21
2022-11-06T18:28:03.766Z,1014.07
2022-11-06T18:37:39.231Z,1013.96
2022-11-06T18:47:16.279Z,1013.84
2022-11-06T18:56:53.647Z,1013.75
2022-11-06T19:06:31.231Z,1013.8
2022-11-06T19:16:08.362Z,1013.7
2022-11-06T19:25:47.907Z,1013.65
2022-11-06T19:35:22.906Z,1013.56
2022-11-06T19:45:00.167Z,1013.65
2022-11-06T19:54:36.920Z,1013.45
2022-11-06T20:04:13.743Z,1013.35
2022-11-06T20:33:05.869Z,1012.9
2022-11-06T20:42:42.800Z,1012.75
2022-11-06T21:01:57.051Z,1012.53
2022-11-06T21:11:34.337Z,1012.68
2022-11-06T21:21:11.159Z,1013.18
2022-11-06T21:30:47.675Z,1013.06
2022-11-06T21:40:24.719Z,1013.09
2022-11-06T21:50:01.463Z,1013.16
2022-11-06T21:59:41.559Z,1013.16
2022-11-06T22:18:52.590Z,1012.98
2022-11-06T22:28:29.607Z,1012.78
2022-11-06T22:38:06.492Z,1012.83
2022-11-06T22:47:43.613Z,1013.04
2022-11-06T22:57:20.719Z,1013.13
2022-11-06T23:06:57.347Z,1013.41
2022-11-06T23:16:34.262Z,1013.33
2022-11-06T23:26:10.876Z,1013.78
2022-11-06T23:35:47.124Z,1013.67
2022-11-06T23:45:24.109Z,1013.58
2022-11-06T23:55:01.549Z,1013.51
